Terminal Aerodrome Forecast
Issued by NWS

Home | Current Version | Previous Version | Text Only | Print | Product List | Glossary On
Versions: 1 2 3 4 5 6 7 8 9 10 11 12 13
000
FTUS45 KLKN 232342
TAFTPH
TAF
KTPH 232342Z 2400/2424 33018G26KT P6SM SKC
     FM240600 35012KT P6SM SKC
     FM241200 36006KT P6SM SCT150 SCT200
     FM242100 33015G25KT P6SM BKN060 BKN120=

USA.gov is the U.S. government's official web portal to all federal, state and local government web resources and services.